createdAt,value
2019-04-16T00:02:26.244Z,10.87
2019-04-16T00:05:16.829Z,11.03
2019-04-16T00:07:55.470Z,11.00
2019-04-16T00:10:50.297Z,11.43
2019-04-16T00:13:49.649Z,8.67
2019-04-16T00:16:21.239Z,8.73
2019-04-16T00:18:58.148Z,8.70
2019-04-16T00:21:44.785Z,9.07
2019-04-16T00:24:28.866Z,6.77
2019-04-16T00:27:00.534Z,12.43
2019-04-16T00:29:32.938Z,7.77
2019-04-16T00:32:26.367Z,9.07
2019-04-16T00:34:57.906Z,9.00
2019-04-16T00:37:29.542Z,9.40
2019-04-16T00:40:01.445Z,10.07
2019-04-16T00:42:34.933Z,6.70
2019-04-16T00:45:07.032Z,7.37
2019-04-16T00:47:41.822Z,8.93
2019-04-16T00:50:13.822Z,8.37
2019-04-16T00:52:45.742Z,10.70
2019-04-16T00:55:17.193Z,7.43
2019-04-16T00:57:49.299Z,7.97
2019-04-16T01:00:21.170Z,8.27
2019-04-16T01:02:52.882Z,11.33
2019-04-16T01:05:24.339Z,8.27
2019-04-16T01:07:56.477Z,6.30
2019-04-16T01:10:28.145Z,12.33
2019-04-16T01:12:59.767Z,8.67
2019-04-16T01:15:32.023Z,11.67
2019-04-16T01:18:07.257Z,10.93
2019-04-16T01:20:40.459Z,9.80
2019-04-16T01:23:11.607Z,5.97
2019-04-16T01:25:46.193Z,8.13
2019-04-16T01:28:20.488Z,11.13
2019-04-16T01:31:09.758Z,10.60
2019-04-16T01:34:03.898Z,9.50
2019-04-16T01:36:44.779Z,7.77
2019-04-16T01:39:18.611Z,10.63
2019-04-16T01:41:52.651Z,9.07
2019-04-16T01:44:28.576Z,7.63
2019-04-16T01:46:58.077Z,9.67
2019-04-16T01:49:29.747Z,9.00
2019-04-16T01:52:01.692Z,9.17
2019-04-16T01:54:33.359Z,9.20
2019-04-16T01:57:05.094Z,16.10
2019-04-16T01:59:38.470Z,11.70
2019-04-16T02:02:14.790Z,8.97
2019-04-16T02:04:43.751Z,10.87
2019-04-16T02:07:15.531Z,11.10
2019-04-16T02:09:47.557Z,9.70
2019-04-16T02:12:19.238Z,9.47
2019-04-16T02:14:51.146Z,8.83
2019-04-16T02:17:26.791Z,10.40
2019-04-16T02:19:58.211Z,9.77
2019-04-16T02:22:29.934Z,13.43
2019-04-16T02:25:01.779Z,10.63
2019-04-16T02:27:34.487Z,12.47
2019-04-16T02:30:07.389Z,11.17
2019-04-16T02:32:39.214Z,11.60
2019-04-16T02:35:11.999Z,14.20
2019-04-16T02:37:44.061Z,11.67
2019-04-16T02:40:18.343Z,14.17
2019-04-16T02:42:49.533Z,24.33
2019-04-16T02:45:23.663Z,12.93
2019-04-16T02:47:54.475Z,14.90
2019-04-16T02:50:33.232Z,13.60
2019-04-16T02:53:27.021Z,12.27
2019-04-16T02:56:17.026Z,10.97
2019-04-16T02:58:49.295Z,12.50
2019-04-16T03:01:37.841Z,13.57
2019-04-16T03:04:16.311Z,14.87
2019-04-16T03:06:47.834Z,12.10
2019-04-16T03:09:19.380Z,12.13
2019-04-16T03:11:51.060Z,12.63
2019-04-16T03:14:22.865Z,12.60
2019-04-16T03:17:21.859Z,11.80
2019-04-16T03:19:54.068Z,14.10
2019-04-16T03:22:25.871Z,14.03
2019-04-16T03:24:57.598Z,12.37
2019-04-16T03:27:29.265Z,15.17
2019-04-16T03:30:03.435Z,14.70
2019-04-16T03:32:37.140Z,16.03
2019-04-16T03:35:08.990Z,17.73
2019-04-16T03:37:40.691Z,13.03
2019-04-16T03:40:17.545Z,13.00
2019-04-16T03:42:46.859Z,13.43
2019-04-16T03:45:18.647Z,12.03
2019-04-16T03:47:51.399Z,12.27
2019-04-16T03:50:23.468Z,11.80
2019-04-16T03:52:55.124Z,13.50
2019-04-16T03:55:26.892Z,16.93
2019-04-16T03:57:58.622Z,14.43
2019-04-16T04:00:30.339Z,15.90
2019-04-16T04:03:02.047Z,15.20
2019-04-16T04:05:35.691Z,16.43
2019-04-16T04:08:07.606Z,16.13
2019-04-16T04:10:39.709Z,13.40
2019-04-16T04:13:11.537Z,17.80
2019-04-16T04:15:43.245Z,11.80
2019-04-16T04:18:21.399Z,17.50
2019-04-16T04:20:53.170Z,13.27
2019-04-16T04:23:25.504Z,13.93
2019-04-16T04:25:58.307Z,17.10
2019-04-16T04:28:29.969Z,11.37
2019-04-16T04:31:01.975Z,14.53
2019-04-16T04:33:41.638Z,16.47
2019-04-16T04:36:11.289Z,12.10
2019-04-16T04:38:42.969Z,15.10
2019-04-16T04:41:14.492Z,15.70
2019-04-16T04:43:46.110Z,14.90
2019-04-16T04:46:17.618Z,15.57
2019-04-16T04:48:49.118Z,17.40
2019-04-16T04:51:20.715Z,15.10
2019-04-16T04:53:52.293Z,19.93
2019-04-16T04:56:27.983Z,14.90
2019-04-16T04:58:58.923Z,19.87
2019-04-16T05:01:33.383Z,16.03
2019-04-16T05:04:26.964Z,15.67
2019-04-16T05:07:00.973Z,20.67
2019-04-16T05:09:36.467Z,18.97
2019-04-16T05:12:08.651Z,16.47
2019-04-16T05:14:51.116Z,15.73
2019-04-16T05:17:24.562Z,23.83
2019-04-16T05:19:56.415Z,21.23
2019-04-16T05:22:28.061Z,20.20
2019-04-16T05:25:01.486Z,17.63
2019-04-16T05:27:32.895Z,22.80
2019-04-16T05:30:05.197Z,23.97
2019-04-16T05:32:36.786Z,20.70
2019-04-16T05:35:10.277Z,21.17
2019-04-16T05:37:41.645Z,19.60
2019-04-16T05:40:13.533Z,20.40
2019-04-16T05:42:45.069Z,21.83
2019-04-16T05:45:16.673Z,22.50
2019-04-16T05:47:48.993Z,18.93
2019-04-16T05:50:23.134Z,22.90
2019-04-16T05:52:54.633Z,23.20
2019-04-16T05:55:49.889Z,24.17
2019-04-16T05:58:21.258Z,23.07
2019-04-16T06:01:20.528Z,19.50
2019-04-16T06:03:53.479Z,17.20
2019-04-16T06:06:25.127Z,21.40
2019-04-16T06:08:56.720Z,29.30
2019-04-16T06:11:35.562Z,20.17
2019-04-16T06:14:07.538Z,22.60
2019-04-16T06:16:56.771Z,30.87
2019-04-16T06:19:35.639Z,26.57
2019-04-16T06:22:14.302Z,26.57
2019-04-16T06:25:16.993Z,23.57
2019-04-16T06:28:02.784Z,23.97
2019-04-16T06:30:48.415Z,24.80
2019-04-16T06:33:45.193Z,22.80
2019-04-16T06:36:41.954Z,30.47
2019-04-16T06:39:35.877Z,27.50
2019-04-16T06:42:32.319Z,27.80
2019-04-16T06:45:14.131Z,29.97
2019-04-16T06:48:13.221Z,28.13
2019-04-16T06:50:51.972Z,26.47
2019-04-16T06:53:41.224Z,25.13
2019-04-16T06:56:40.414Z,33.70
2019-04-16T06:59:26.405Z,30.47
2019-04-16T07:02:16.469Z,33.93
2019-04-16T07:05:03.725Z,32.87
2019-04-16T07:07:54.275Z,27.00
2019-04-16T07:10:34.105Z,28.70
2019-04-16T07:13:09.975Z,21.13
2019-04-16T07:15:40.126Z,26.43
2019-04-16T07:18:11.629Z,28.10
2019-04-16T07:20:45.700Z,26.40
2019-04-16T07:23:16.469Z,28.93
2019-04-16T07:25:48.419Z,25.07
2019-04-16T07:28:28.876Z,26.07
2019-04-16T07:31:25.917Z,27.17
2019-04-16T07:34:07.837Z,30.27
2019-04-16T07:37:00.230Z,28.70
2019-04-16T07:39:54.976Z,22.50
2019-04-16T07:42:34.701Z,22.03
2019-04-16T07:45:13.567Z,24.23
2019-04-16T07:48:06.236Z,23.30
2019-04-16T07:50:54.735Z,25.67
2019-04-16T07:53:55.977Z,21.47
2019-04-16T07:56:27.537Z,27.40
2019-04-16T07:59:01.253Z,19.03
2019-04-16T08:01:33.351Z,19.90
2019-04-16T08:04:04.933Z,18.47
2019-04-16T08:06:38.549Z,19.27
2019-04-16T08:09:10.150Z,21.50
2019-04-16T08:11:41.945Z,22.57
2019-04-16T08:14:14.712Z,22.67
2019-04-16T08:16:48.123Z,18.73
2019-04-16T08:19:19.982Z,15.63
2019-04-16T08:21:51.502Z,19.37
2019-04-16T08:24:30.456Z,16.63
2019-04-16T08:27:02.191Z,17.47
2019-04-16T08:29:33.682Z,16.00
2019-04-16T08:32:05.167Z,17.73
2019-04-16T08:34:36.934Z,16.00
2019-04-16T08:37:10.030Z,13.87
2019-04-16T08:39:43.960Z,16.00
2019-04-16T08:42:15.434Z,12.33
2019-04-16T08:44:47.004Z,14.27
2019-04-16T08:50:05.078Z,11.53
2019-04-16T08:52:38.553Z,14.80
2019-04-16T08:55:10.178Z,16.13
2019-04-16T08:57:53.890Z,19.20
2019-04-16T09:00:25.966Z,14.87
2019-04-16T09:02:59.036Z,12.87
2019-04-16T09:05:31.319Z,14.67
2019-04-16T09:08:16.084Z,13.43
2019-04-16T09:10:47.851Z,16.77
2019-04-16T09:13:21.764Z,14.40
2019-04-16T09:15:53.254Z,11.07
2019-04-16T09:18:29.874Z,13.13
2019-04-16T09:21:01.499Z,13.63
2019-04-16T09:23:33.014Z,10.33
2019-04-16T09:26:26.613Z,10.20
2019-04-16T09:29:16.949Z,9.43
2019-04-16T09:32:15.067Z,9.97
2019-04-16T09:35:09.205Z,11.83
2019-04-16T09:37:51.121Z,7.83
2019-04-16T09:40:48.816Z,7.63
2019-04-16T09:43:21.687Z,7.67
2019-04-16T09:46:09.405Z,10.30
2019-04-16T09:48:34.528Z,8.87
2019-04-16T09:51:05.307Z,7.67
2019-04-16T09:53:40.106Z,7.13
2019-04-16T09:56:28.984Z,6.40
2019-04-16T09:59:16.176Z,9.43
2019-04-16T10:01:49.930Z,12.40
2019-04-16T10:04:22.142Z,16.57
2019-04-16T10:06:53.951Z,10.83
2019-04-16T10:09:25.837Z,8.97
2019-04-16T10:12:00.080Z,7.23
2019-04-16T10:14:31.995Z,8.63
2019-04-16T10:17:05.386Z,5.73
2019-04-16T10:19:43.041Z,10.13
2019-04-16T10:22:15.913Z,10.83
2019-04-16T10:25:16.887Z,8.37
2019-04-16T10:27:52.117Z,9.97
2019-04-16T10:30:29.882Z,6.20
2019-04-16T10:33:00.584Z,6.73
2019-04-16T10:35:36.091Z,7.43
2019-04-16T10:38:24.668Z,7.50
2019-04-16T10:41:02.831Z,9.27
2019-04-16T10:43:52.766Z,14.53
2019-04-16T10:46:46.149Z,7.90
2019-04-16T10:49:37.012Z,8.60
2019-04-16T10:52:28.578Z,6.97
2019-04-16T10:55:18.742Z,8.97
2019-04-16T10:58:10.144Z,9.10
2019-04-16T11:00:53.068Z,7.60
2019-04-16T11:03:35.529Z,10.93
2019-04-16T11:06:14.021Z,8.33
2019-04-16T11:08:46.166Z,8.17
2019-04-16T11:11:17.947Z,8.07
2019-04-16T11:13:59.669Z,8.27
2019-04-16T11:16:25.272Z,6.53
2019-04-16T11:19:00.026Z,9.20
2019-04-16T11:21:31.737Z,7.97
2019-04-16T11:24:03.577Z,8.03
2019-04-16T11:26:35.698Z,7.43
2019-04-16T11:29:07.674Z,8.80
2019-04-16T11:31:41.149Z,7.70
2019-04-16T11:34:14.091Z,8.03
2019-04-16T11:36:46.099Z,7.03
2019-04-16T11:39:18.099Z,11.40
2019-04-16T11:41:49.858Z,8.77
2019-04-16T11:44:21.410Z,6.70
2019-04-16T11:46:53.293Z,8.37
2019-04-16T11:49:24.985Z,7.43
2019-04-16T11:51:56.564Z,6.47
2019-04-16T11:54:28.512Z,6.43
2019-04-16T11:57:02.025Z,7.10
2019-04-16T11:59:34.093Z,5.40
2019-04-16T12:02:26.844Z,8.73
2019-04-16T12:05:09.949Z,5.83
2019-04-16T12:07:56.052Z,6.20
2019-04-16T12:10:45.419Z,8.93
2019-04-16T12:13:26.959Z,5.93
2019-04-16T12:16:16.268Z,6.03
2019-04-16T12:19:13.407Z,6.23
2019-04-16T12:22:17.507Z,7.13
2019-04-16T12:25:23.574Z,6.40
2019-04-16T12:28:17.515Z,8.53
2019-04-16T12:31:06.958Z,6.50
2019-04-16T12:33:46.290Z,6.00
2019-04-16T12:36:48.980Z,8.43
2019-04-16T12:39:48.526Z,8.93
2019-04-16T12:42:54.269Z,7.50
2019-04-16T12:45:47.606Z,7.73
2019-04-16T12:48:40.957Z,7.90
2019-04-16T12:51:22.372Z,6.27
2019-04-16T12:54:00.619Z,8.23
2019-04-16T12:56:50.012Z,8.10
2019-04-16T12:59:29.506Z,5.77
2019-04-16T13:02:24.343Z,6.83
2019-04-16T13:05:21.106Z,11.67
2019-04-16T13:08:09.998Z,7.27
2019-04-16T13:10:54.798Z,5.97
2019-04-16T13:13:44.813Z,5.87
2019-04-16T13:16:20.210Z,6.80
2019-04-16T13:19:10.004Z,5.83
2019-04-16T13:22:07.046Z,7.57
2019-04-16T13:24:46.524Z,8.13
2019-04-16T13:27:20.924Z,7.77
2019-04-16T13:29:52.778Z,6.67
2019-04-16T13:32:28.087Z,7.37
2019-04-16T13:35:00.524Z,7.37
2019-04-16T13:37:36.950Z,6.70
2019-04-16T13:40:12.906Z,7.93
2019-04-16T13:42:44.748Z,8.00
2019-04-16T13:45:38.534Z,7.37
2019-04-16T13:48:28.190Z,10.57
2019-04-16T13:51:06.487Z,7.37
2019-04-16T13:53:49.753Z,5.60
2019-04-16T13:56:39.360Z,7.37
2019-04-16T13:59:42.418Z,7.53
2019-04-16T14:02:39.166Z,8.17
2019-04-16T14:05:11.567Z,6.30
2019-04-16T14:07:44.685Z,7.97
2019-04-16T14:10:17.513Z,8.07
2019-04-16T14:12:49.297Z,6.30
2019-04-16T14:15:31.908Z,9.60
2019-04-16T14:17:59.753Z,7.10
2019-04-16T14:20:30.462Z,12.80
2019-04-16T14:23:03.290Z,9.17
2019-04-16T14:25:35.130Z,10.67
2019-04-16T14:28:06.795Z,10.43
2019-04-16T14:30:42.887Z,8.80
2019-04-16T14:33:20.274Z,6.50
2019-04-16T14:35:51.923Z,9.10
2019-04-16T14:38:36.127Z,6.03
2019-04-16T14:41:08.263Z,6.57
2019-04-16T14:43:42.510Z,8.67
2019-04-16T14:46:28.212Z,6.73
2019-04-16T14:48:56.541Z,7.17
2019-04-16T14:51:28.393Z,6.17
2019-04-16T14:54:28.176Z,8.53
2019-04-16T14:57:01.300Z,6.73
2019-04-16T14:59:55.001Z,4.37
2019-04-16T15:02:54.826Z,4.73
2019-04-16T15:05:40.255Z,6.20
2019-04-16T15:08:31.300Z,7.23
2019-04-16T15:11:40.755Z,6.87
2019-04-16T15:14:15.885Z,7.60
2019-04-16T15:17:05.926Z,7.63
2019-04-16T15:19:42.531Z,8.97
2019-04-16T15:22:20.112Z,10.17
2019-04-16T15:25:10.694Z,7.63
2019-04-16T15:28:01.978Z,8.23
2019-04-16T15:31:00.667Z,9.17
2019-04-16T15:33:44.527Z,7.83
2019-04-16T15:36:23.281Z,6.13
2019-04-16T15:39:16.751Z,9.70
2019-04-16T15:42:05.254Z,8.80
2019-04-16T15:45:08.693Z,8.53
2019-04-16T15:48:18.071Z,9.67
2019-04-16T15:51:13.747Z,6.80
2019-04-16T15:54:03.982Z,6.73
2019-04-16T15:56:57.171Z,8.00
2019-04-16T15:59:38.278Z,7.40
2019-04-16T16:02:26.827Z,9.23
2019-04-16T16:05:02.412Z,9.50
2019-04-16T16:07:39.992Z,6.43
2019-04-16T16:10:23.616Z,6.93
2019-04-16T16:12:55.871Z,7.33
2019-04-16T16:15:27.649Z,6.17
2019-04-16T16:17:59.554Z,5.33
2019-04-16T16:20:31.285Z,5.63
2019-04-16T16:23:02.966Z,9.20
2019-04-16T16:25:35.172Z,6.67
2019-04-16T16:28:08.531Z,6.73
2019-04-16T16:30:40.402Z,12.07
2019-04-16T16:33:12.114Z,6.43
2019-04-16T16:35:56.893Z,7.33
2019-04-16T16:38:20.682Z,7.47
2019-04-16T16:40:51.123Z,8.20
2019-04-16T16:43:23.006Z,7.90
2019-04-16T16:46:23.755Z,9.40
2019-04-16T16:48:55.647Z,5.90
2019-04-16T16:51:27.433Z,9.13
2019-04-16T16:54:07.459Z,10.57
2019-04-16T16:56:45.353Z,7.90
2019-04-16T16:59:43.899Z,6.07
2019-04-16T17:02:20.651Z,4.67
2019-04-16T17:04:54.412Z,6.67
2019-04-16T17:07:26.000Z,8.73
2019-04-16T17:10:07.071Z,21.27
2019-04-16T17:12:33.922Z,11.03
2019-04-16T17:15:08.723Z,11.30
2019-04-16T17:17:40.046Z,7.10
2019-04-16T17:20:12.130Z,5.73
2019-04-16T17:22:45.896Z,6.30
2019-04-16T17:25:17.510Z,7.10
2019-04-16T17:27:51.727Z,8.93
2019-04-16T17:30:22.402Z,7.37
2019-04-16T17:32:53.942Z,7.53
2019-04-16T17:35:25.448Z,10.00
2019-04-16T17:38:01.552Z,19.67
2019-04-16T17:40:51.149Z,12.93
2019-04-16T17:44:00.644Z,23.17
2019-04-16T17:46:38.274Z,14.93
2019-04-16T17:49:31.810Z,13.37
2019-04-16T17:52:22.298Z,12.07
2019-04-16T17:55:16.988Z,13.20
2019-04-16T17:57:56.556Z,13.63
2019-04-16T18:00:45.982Z,7.90
2019-04-16T18:03:37.590Z,11.70
2019-04-16T18:06:35.708Z,43.47
2019-04-16T18:09:16.707Z,32.77
2019-04-16T18:12:05.736Z,19.50
2019-04-16T18:14:58.374Z,15.20
2019-04-16T18:17:47.371Z,9.60
2019-04-16T18:20:35.206Z,10.83
2019-04-16T18:23:43.707Z,11.70
2019-04-16T18:26:40.067Z,8.90
2019-04-16T18:29:16.385Z,9.87
2019-04-16T18:31:58.297Z,13.67
2019-04-16T18:34:40.248Z,13.30
2019-04-16T18:37:29.594Z,11.73
2019-04-16T18:40:20.228Z,11.93
2019-04-16T18:43:13.536Z,12.10
2019-04-16T18:46:02.484Z,16.50
2019-04-16T18:48:35.863Z,23.00
2019-04-16T18:51:07.596Z,12.77
2019-04-16T18:53:40.300Z,13.37
2019-04-16T18:56:13.139Z,11.47
2019-04-16T18:58:44.874Z,14.47
2019-04-16T19:01:25.370Z,13.47
2019-04-16T19:03:58.474Z,10.47
2019-04-16T19:06:30.591Z,12.40
2019-04-16T19:09:02.164Z,15.10
2019-04-16T19:11:40.519Z,13.30
2019-04-16T19:14:13.882Z,14.53
2019-04-16T19:16:45.652Z,13.57
2019-04-16T19:19:17.176Z,14.37
2019-04-16T19:21:51.593Z,13.97
2019-04-16T19:24:21.848Z,16.83
2019-04-16T19:26:53.384Z,11.97
2019-04-16T19:29:24.975Z,10.90
2019-04-16T19:31:57.319Z,12.17
2019-04-16T19:34:29.080Z,15.10
2019-04-16T19:37:01.010Z,14.47
2019-04-16T19:39:32.924Z,15.20
2019-04-16T19:42:04.452Z,20.33
2019-04-16T19:44:39.713Z,17.30
2019-04-16T19:47:09.364Z,19.23
2019-04-16T19:49:40.995Z,25.07
2019-04-16T19:52:14.287Z,31.40
2019-04-16T19:54:48.543Z,23.97
2019-04-16T19:57:20.613Z,25.20
2019-04-16T19:59:52.285Z,26.63
2019-04-16T20:02:23.799Z,20.57
2019-04-16T20:04:55.422Z,18.97
2019-04-16T20:07:32.594Z,15.90
2019-04-16T20:10:03.617Z,15.33
2019-04-16T20:12:36.488Z,19.23
2019-04-16T20:15:09.692Z,15.70
2019-04-16T20:17:41.475Z,15.23
2019-04-16T20:20:12.947Z,15.23
2019-04-16T20:22:45.011Z,12.97
2019-04-16T20:25:18.239Z,13.70
2019-04-16T20:27:49.781Z,9.57
2019-04-16T20:30:24.256Z,13.07
2019-04-16T20:32:54.479Z,20.40
2019-04-16T20:35:25.957Z,12.07
2019-04-16T20:37:57.466Z,12.93
2019-04-16T20:40:29.169Z,11.47
2019-04-16T20:43:00.906Z,14.33
2019-04-16T20:45:32.476Z,12.17
2019-04-16T20:48:04.025Z,9.97
2019-04-16T20:50:35.659Z,11.97
2019-04-16T20:53:08.560Z,14.33
2019-04-16T20:55:47.061Z,10.90
2019-04-16T20:58:17.541Z,12.50
2019-04-16T21:00:50.577Z,10.27
2019-04-16T21:03:22.884Z,12.50
2019-04-16T21:05:59.035Z,12.07
2019-04-16T21:08:27.573Z,10.73
2019-04-16T21:11:00.022Z,10.97
2019-04-16T21:13:31.851Z,15.30
2019-04-16T21:16:04.508Z,14.30
2019-04-16T21:18:36.070Z,13.13
2019-04-16T21:21:07.547Z,11.53
2019-04-16T21:23:39.078Z,15.97
2019-04-16T21:26:10.609Z,14.60
2019-04-16T21:29:10.181Z,24.90
2019-04-16T21:31:45.382Z,17.63
2019-04-16T21:34:29.312Z,13.83
2019-04-16T21:37:28.859Z,11.07
2019-04-16T21:40:01.856Z,9.87
2019-04-16T21:42:34.882Z,15.60
2019-04-16T21:45:08.444Z,14.93
2019-04-16T21:47:43.722Z,12.83
2019-04-16T21:50:16.423Z,11.43
2019-04-16T21:52:48.894Z,11.63
2019-04-16T21:55:20.429Z,14.27
2019-04-16T21:57:52.395Z,16.47
2019-04-16T22:00:41.269Z,12.30
2019-04-16T22:03:15.215Z,11.13
2019-04-16T22:05:48.345Z,12.60
2019-04-16T22:08:19.905Z,12.30
2019-04-16T22:10:51.495Z,16.70
2019-04-16T22:13:23.669Z,12.07
2019-04-16T22:15:57.350Z,15.27
2019-04-16T22:18:28.305Z,15.03
2019-04-16T22:20:59.795Z,15.00
2019-04-16T22:23:31.239Z,15.87
2019-04-16T22:26:03.374Z,15.50
2019-04-16T22:28:34.891Z,11.47
2019-04-16T22:31:06.467Z,15.13
2019-04-16T22:33:37.917Z,15.57
2019-04-16T22:36:12.963Z,17.77
2019-04-16T22:38:48.994Z,13.90
2019-04-16T22:41:32.188Z,17.47
2019-04-16T22:44:14.575Z,17.30
2019-04-16T22:46:59.381Z,14.27
2019-04-16T22:49:30.945Z,18.97
2019-04-16T22:52:02.847Z,15.00
2019-04-16T22:54:34.353Z,14.00
2019-04-16T22:57:07.591Z,13.63
2019-04-16T22:59:40.066Z,13.77
2019-04-16T23:02:31.069Z,15.37
2019-04-16T23:05:02.599Z,17.03
2019-04-16T23:07:36.563Z,14.80
2019-04-16T23:10:07.368Z,12.60
2019-04-16T23:12:38.961Z,16.73
2019-04-16T23:15:12.205Z,13.13
2019-04-16T23:17:46.115Z,11.17
2019-04-16T23:20:28.678Z,11.90
2019-04-16T23:22:49.877Z,11.67
2019-04-16T23:25:21.481Z,19.90
2019-04-16T23:27:52.949Z,12.47
2019-04-16T23:30:24.457Z,16.13
2019-04-16T23:33:00.119Z,11.47
2019-04-16T23:35:30.232Z,11.77
2019-04-16T23:38:01.724Z,15.83
2019-04-16T23:40:33.187Z,13.87
2019-04-16T23:43:32.846Z,16.03
2019-04-16T23:46:50.821Z,15.40
2019-04-16T23:49:52.898Z,13.43
2019-04-16T23:52:31.867Z,10.77
2019-04-16T23:55:06.203Z,16.43
2019-04-16T23:57:56.853Z,13.10
